Time;durP1;ratioP1;P1;durP2;ratioP2;P2;SDS_P1;SDS_P2;PMS_P1;PMS_P2;Temp;Humidity;BMP_temperature;BMP_pressure;BME280_temperature;BME280_humidity;BME280_pressure;Samples;Min_cycle;Max_cycle;Signal;HPM_P1;HPM_P2
2022/10/19 00:01:03;;;;;;;31.65;11.93;;;;;;;;;;4994366;28;20054;-69
2022/10/19 00:03:30;;;;;;;34.25;11.38;;;;;;;;;;5007988;28;20038;-68
2022/10/19 00:05:57;;;;;;;33.22;11.95;;;;;;;;;;5002947;28;20129;-67
2022/10/19 00:08:23;;;;;;;29.13;11.82;;;;;;;;;;5002771;28;21257;-68
2022/10/19 00:10:49;;;;;;;40.25;11.82;;;;;;;;;;5006946;28;20050;-67
2022/10/19 00:13:15;;;;;;;33.67;11.85;;;;;;;;;;5003050;28;20049;-69
2022/10/19 00:15:41;;;;;;;42.85;11.55;;;;;;;;;;5000040;28;20187;-66
2022/10/19 00:18:08;;;;;;;39.72;12.65;;;;;;;;;;5005764;28;20057;-67
2022/10/19 00:20:35;;;;;;;34.28;11.93;;;;;;;;;;5007656;28;20108;-68
2022/10/19 00:23:01;;;;;;;29.40;11.50;;;;;;;;;;5003126;28;20057;-67
2022/10/19 00:25:27;;;;;;;41.28;12.27;;;;;;;;;;5007316;28;20058;-68
2022/10/19 00:27:53;;;;;;;37.42;12.40;;;;;;;;;;5001982;28;20053;-69
2022/10/19 00:30:19;;;;;;;28.00;12.05;;;;;;;;;;5003104;28;20046;-67
2022/10/19 00:32:45;;;;;;;29.58;11.10;;;;;;;;;;5005030;28;20379;-67
2022/10/19 00:35:11;;;;;;;33.53;11.02;;;;;;;;;;4994688;28;20049;-68
2022/10/19 00:37:36;;;;;;;30.98;11.13;;;;;;;;;;5006826;28;20104;-68
2022/10/19 00:40:03;;;;;;;35.83;11.13;;;;;;;;;;5003130;28;20050;-68
2022/10/19 00:42:28;;;;;;;34.35;10.88;;;;;;;;;;5006394;28;20046;-68
2022/10/19 00:45:00;;;;;;;24.67;10.30;;;;;;;;;;4997349;28;20400;-66
2022/10/19 00:47:27;;;;;;;29.23;11.20;;;;;;;;;;4999514;28;20045;-68
2022/10/19 00:49:54;;;;;;;34.85;11.90;;;;;;;;;;5006459;28;20049;-67
2022/10/19 00:52:22;;;;;;;35.65;11.43;;;;;;;;;;5008217;28;20408;-69
2022/10/19 00:54:50;;;;;;;31.88;11.23;;;;;;;;;;5002839;28;20046;-68
2022/10/19 00:57:17;;;;;;;39.38;10.85;;;;;;;;;;4998951;28;20136;-70
2022/10/19 00:59:45;;;;;;;36.50;11.75;;;;;;;;;;5004055;28;20526;-67
2022/10/19 01:02:11;;;;;;;36.22;11.15;;;;;;;;;;5004100;28;20049;-72
2022/10/19 01:04:41;;;;;;;32.88;12.68;;;;;;;;;;5007112;28;20049;-70
2022/10/19 01:07:07;;;;;;;50.28;13.23;;;;;;;;;;5000963;28;20056;-67
2022/10/19 01:09:33;;;;;;;42.15;13.75;;;;;;;;;;5005852;28;20046;-69
2022/10/19 01:12:14;;;;;;;51.38;14.63;;;;;;;;;;4998020;28;20100;-67
2022/10/19 01:15:14;;;;;;;39.75;13.70;;;;;;;;;;4999945;28;20050;-68
2022/10/19 01:18:06;;;;;;;36.97;14.00;;;;;;;;;;5001739;28;20426;-67
2022/10/19 01:20:50;;;;;;;41.40;12.85;;;;;;;;;;5006124;28;20133;-67
2022/10/19 01:23:35;;;;;;;;;;;;;;;;;;5011031;28;20500;-68
2022/10/19 01:26:33;;;;;;;43.47;14.10;;;;;;;;;;5010528;28;20056;-67
2022/10/19 01:29:05;;;;;;;35.53;12.93;;;;;;;;;;5007409;28;20050;-67
2022/10/19 01:31:34;;;;;;;44.15;12.75;;;;;;;;;;5001586;28;20416;-67
2022/10/19 01:34:28;;;;;;;38.53;12.32;;;;;;;;;;4996125;28;20082;-68
2022/10/19 01:37:07;;;;;;;28.60;11.48;;;;;;;;;;5000894;28;20053;-72
2022/10/19 01:39:43;;;;;;;29.48;10.65;;;;;;;;;;5006959;28;20057;-68
2022/10/19 01:42:39;;;;;;;39.63;11.05;;;;;;;;;;5008378;28;20165;-69
2022/10/19 01:45:17;;;;;;;38.33;12.00;;;;;;;;;;4997693;28;20056;-69
2022/10/19 01:47:52;;;;;;;41.50;12.55;;;;;;;;;;4998284;28;20076;-67
2022/10/19 01:50:47;;;;;;;35.17;11.07;;;;;;;;;;4995627;28;20058;-67
2022/10/19 01:53:15;;;;;;;31.45;10.65;;;;;;;;;;4988148;28;20125;-68
2022/10/19 01:55:44;;;;;;;35.03;11.40;;;;;;;;;;5008135;28;20046;-67
2022/10/19 01:58:15;;;;;;;30.75;10.63;;;;;;;;;;5002630;28;20129;-68
2022/10/19 02:00:45;;;;;;;29.52;10.80;;;;;;;;;;5001152;28;20050;-69
2022/10/19 02:03:12;;;;;;;36.08;11.52;;;;;;;;;;5014493;28;20042;-71
2022/10/19 02:05:40;;;;;;;30.85;9.85;;;;;;;;;;5008144;28;20037;-68
2022/10/19 02:08:28;;;;;;;37.97;10.75;;;;;;;;;;5008497;28;20133;-68
2022/10/19 02:10:57;;;;;;;24.85;9.80;;;;;;;;;;5005152;28;20054;-68
2022/10/19 02:13:25;;;;;;;33.30;9.40;;;;;;;;;;5005421;28;20053;-68
2022/10/19 02:15:55;;;;;;;28.48;8.95;;;;;;;;;;5010476;28;20053;-68
2022/10/19 02:18:37;;;;;;;36.40;9.82;;;;;;;;;;5006425;28;20622;-68
2022/10/19 02:21:04;;;;;;;28.15;9.43;;;;;;;;;;5003000;28;20037;-68
2022/10/19 02:23:31;;;;;;;30.95;9.57;;;;;;;;;;4999809;28;20510;-69
2022/10/19 02:25:58;;;;;;;29.67;9.45;;;;;;;;;;5002392;28;20046;-70
2022/10/19 02:28:25;;;;;;;24.05;9.30;;;;;;;;;;5004414;28;20054;-71
2022/10/19 02:30:51;;;;;;;31.73;9.98;;;;;;;;;;5007619;28;20053;-68
2022/10/19 02:33:17;;;;;;;24.08;9.10;;;;;;;;;;5005424;28;20101;-69
2022/10/19 02:35:43;;;;;;;31.98;9.10;;;;;;;;;;5006891;28;20065;-68
2022/10/19 02:38:14;;;;;;;28.15;8.93;;;;;;;;;;5012929;28;20556;-68
2022/10/19 02:40:44;;;;;;;34.65;9.25;;;;;;;;;;5007994;28;20103;-67
2022/10/19 02:43:13;;;;;;;30.80;9.15;;;;;;;;;;5000528;28;20504;-67
2022/10/19 02:46:08;;;;;;;26.98;9.57;;;;;;;;;;4999411;28;20046;-69
2022/10/19 02:48:36;;;;;;;26.60;9.10;;;;;;;;;;5000328;28;20050;-69
2022/10/19 02:51:02;;;;;;;31.10;9.55;;;;;;;;;;5003607;28;20042;-68
2022/10/19 02:53:28;;;;;;;37.13;9.70;;;;;;;;;;5006341;28;20054;-68
2022/10/19 02:55:54;;;;;;;36.63;9.63;;;;;;;;;;5006776;28;20050;-68
2022/10/19 02:58:20;;;;;;;34.15;10.25;;;;;;;;;;5006012;28;20057;-70
2022/10/19 03:00:46;;;;;;;23.73;9.20;;;;;;;;;;5011012;28;20070;-70
2022/10/19 03:03:12;;;;;;;29.23;9.60;;;;;;;;;;5008017;28;20088;-70
2022/10/19 03:05:38;;;;;;;33.67;9.73;;;;;;;;;;5008023;28;20080;-71
2022/10/19 03:08:04;;;;;;;28.70;9.98;;;;;;;;;;4997692;28;20384;-68
2022/10/19 03:10:29;;;;;;;40.45;9.98;;;;;;;;;;5009868;28;20064;-69
2022/10/19 03:12:59;;;;;;;28.08;9.10;;;;;;;;;;5005983;28;20045;-68
2022/10/19 03:15:27;;;;;;;36.28;9.55;;;;;;;;;;5010409;28;20050;-67
2022/10/19 03:17:54;;;;;;;28.27;9.38;;;;;;;;;;5008275;28;20068;-69
2022/10/19 03:20:20;;;;;;;27.17;9.82;;;;;;;;;;5001134;28;20089;-68
2022/10/19 03:22:46;;;;;;;31.83;9.77;;;;;;;;;;5003484;28;20038;-68
2022/10/19 03:25:12;;;;;;;30.58;10.25;;;;;;;;;;5006344;28;20053;-68
2022/10/19 03:27:38;;;;;;;29.38;9.77;;;;;;;;;;5003485;28;20057;-70
2022/10/19 03:30:04;;;;;;;32.30;8.40;;;;;;;;;;5006903;28;20042;-68
2022/10/19 03:32:30;;;;;;;27.95;8.98;;;;;;;;;;5007925;28;20054;-68
2022/10/19 03:34:56;;;;;;;28.20;8.55;;;;;;;;;;5000079;28;20037;-69
2022/10/19 03:37:22;;;;;;;33.65;9.48;;;;;;;;;;5004480;28;20060;-69
2022/10/19 03:39:47;;;;;;;29.83;9.30;;;;;;;;;;5005845;28;20373;-69
2022/10/19 03:42:13;;;;;;;27.35;9.13;;;;;;;;;;5003423;28;20219;-67
2022/10/19 03:44:40;;;;;;;33.35;9.70;;;;;;;;;;5005736;28;20558;-68
2022/10/19 03:47:06;;;;;;;30.33;9.43;;;;;;;;;;5005348;28;20045;-68
2022/10/19 03:49:32;;;;;;;30.48;8.80;;;;;;;;;;5003420;28;20120;-69
2022/10/19 03:51:58;;;;;;;33.63;10.05;;;;;;;;;;4997671;28;20042;-67
2022/10/19 03:54:24;;;;;;;23.52;9.07;;;;;;;;;;4998160;28;20517;-68
2022/10/19 03:56:50;;;;;;;23.58;9.82;;;;;;;;;;4996290;28;20121;-69
2022/10/19 03:59:16;;;;;;;29.08;9.77;;;;;;;;;;4998880;28;20133;-67
2022/10/19 04:01:44;;;;;;;31.15;9.63;;;;;;;;;;5015150;28;20053;-68
2022/10/19 04:04:16;;;;;;;39.00;10.88;;;;;;;;;;5004908;28;20042;-68
2022/10/19 04:06:44;;;;;;;34.83;9.88;;;;;;;;;;5007111;28;20050;-70
2022/10/19 04:09:13;;;;;;;24.13;9.90;;;;;;;;;;4995017;28;20049;-67
2022/10/19 04:11:40;;;;;;;32.17;10.45;;;;;;;;;;5011849;28;20103;-68
2022/10/19 04:14:06;;;;;;;24.73;9.80;;;;;;;;;;5013715;28;20092;-70
2022/10/19 04:16:32;;;;;;;23.17;8.75;;;;;;;;;;5004857;28;20051;-71
2022/10/19 04:18:59;;;;;;;35.05;9.90;;;;;;;;;;5005221;28;20068;-67
2022/10/19 04:21:28;;;;;;;35.13;10.15;;;;;;;;;;4997438;28;20035;-68
2022/10/19 04:24:03;;;;;;;27.08;10.02;;;;;;;;;;5001663;28;20042;-71
2022/10/19 04:26:29;;;;;;;28.40;9.00;;;;;;;;;;5007518;28;20041;-68
2022/10/19 04:28:57;;;;;;;25.38;9.30;;;;;;;;;;5005379;28;20046;-71
2022/10/19 04:31:23;;;;;;;31.42;8.95;;;;;;;;;;5008423;28;20173;-70
2022/10/19 04:33:49;;;;;;;29.73;9.85;;;;;;;;;;5004392;28;20244;-68
2022/10/19 04:36:15;;;;;;;29.23;9.88;;;;;;;;;;5008509;28;20618;-69
2022/10/19 04:38:40;;;;;;;34.95;10.25;;;;;;;;;;5006405;28;20046;-72
2022/10/19 04:41:10;;;;;;;26.40;9.90;;;;;;;;;;5006991;28;20144;-70
2022/10/19 04:43:36;;;;;;;28.92;10.07;;;;;;;;;;5002446;28;20201;-69
2022/10/19 04:46:08;;;;;;;29.38;10.25;;;;;;;;;;5001828;28;20443;-71
2022/10/19 04:48:36;;;;;;;21.05;9.23;;;;;;;;;;4998431;28;20078;-68
2022/10/19 04:51:03;;;;;;;27.55;9.48;;;;;;;;;;5003318;28;20124;-70
2022/10/19 04:53:30;;;;;;;34.13;9.85;;;;;;;;;;5004741;28;20050;-68
2022/10/19 04:55:56;;;;;;;28.35;9.48;;;;;;;;;;5002622;28;20056;-68
2022/10/19 04:58:22;;;;;;;29.60;10.13;;;;;;;;;;5005773;28;20045;-70
2022/10/19 05:00:49;;;;;;;21.35;8.95;;;;;;;;;;5002043;28;20558;-70
2022/10/19 05:03:15;;;;;;;27.83;10.07;;;;;;;;;;5001353;28;20127;-68
2022/10/19 05:05:41;;;;;;;31.58;9.57;;;;;;;;;;4997721;28;20141;-69
2022/10/19 05:08:08;;;;;;;23.67;9.63;;;;;;;;;;5000896;28;20472;-69
2022/10/19 05:10:35;;;;;;;31.00;9.48;;;;;;;;;;4997930;28;20053;-69
2022/10/19 05:13:02;;;;;;;29.38;9.75;;;;;;;;;;4999943;28;20088;-71
2022/10/19 05:15:28;;;;;;;30.92;9.77;;;;;;;;;;4998186;28;20106;-68
2022/10/19 05:17:55;;;;;;;28.60;8.90;;;;;;;;;;5004045;28;20376;-70
2022/10/19 05:20:23;;;;;;;26.83;9.52;;;;;;;;;;4996645;28;20050;-67
2022/10/19 05:22:48;;;;;;;37.85;10.95;;;;;;;;;;5000200;28;20042;-71
2022/10/19 05:25:15;;;;;;;28.00;9.50;;;;;;;;;;5002598;28;20195;-68
2022/10/19 05:27:41;;;;;;;31.17;9.60;;;;;;;;;;5002954;28;20100;-70
2022/10/19 05:30:07;;;;;;;28.17;9.25;;;;;;;;;;5008490;28;20481;-69
2022/10/19 05:32:33;;;;;;;30.55;9.13;;;;;;;;;;5003543;28;20475;-72
2022/10/19 05:35:00;;;;;;;36.55;9.55;;;;;;;;;;5008316;28;20061;-71
2022/10/19 05:37:26;;;;;;;32.78;9.75;;;;;;;;;;5000999;28;20054;-70
2022/10/19 05:39:54;;;;;;;29.40;9.40;;;;;;;;;;5008992;28;20046;-69
2022/10/19 05:42:20;;;;;;;26.50;9.40;;;;;;;;;;5004372;28;20710;-70
2022/10/19 05:44:46;;;;;;;20.60;9.35;;;;;;;;;;4998990;28;20046;-68
2022/10/19 05:47:11;;;;;;;30.05;10.10;;;;;;;;;;5010119;28;20459;-69
2022/10/19 05:49:37;;;;;;;28.95;9.10;;;;;;;;;;5004953;28;20469;-71
2022/10/19 05:52:03;;;;;;;30.67;10.10;;;;;;;;;;5004962;28;20042;-69
2022/10/19 05:54:30;;;;;;;26.42;9.18;;;;;;;;;;5005883;28;20046;-69
2022/10/19 05:56:55;;;;;;;24.30;8.80;;;;;;;;;;5009516;28;20088;-68
2022/10/19 05:59:22;;;;;;;30.80;9.60;;;;;;;;;;5005510;28;20157;-67
2022/10/19 06:01:48;;;;;;;28.33;10.30;;;;;;;;;;5004260;28;20069;-68
2022/10/19 06:04:14;;;;;;;22.95;9.57;;;;;;;;;;5006699;28;20042;-69
2022/10/19 06:06:41;;;;;;;33.83;8.98;;;;;;;;;;5009582;28;20053;-68
2022/10/19 06:09:08;;;;;;;29.15;9.35;;;;;;;;;;5010914;28;20129;-69
2022/10/19 06:11:37;;;;;;;29.77;9.48;;;;;;;;;;5006362;28;20076;-68
2022/10/19 06:14:07;;;;;;;26.83;10.07;;;;;;;;;;4999392;28;20053;-69
2022/10/19 06:16:34;;;;;;;27.98;9.77;;;;;;;;;;5004400;28;20065;-69
2022/10/19 06:19:01;;;;;;;27.60;9.77;;;;;;;;;;5011831;28;20046;-70
2022/10/19 06:21:28;;;;;;;20.38;9.20;;;;;;;;;;5010234;28;20050;-68
2022/10/19 06:24:05;;;;;;;28.02;9.63;;;;;;;;;;5009149;28;20049;-67
2022/10/19 06:26:32;;;;;;;21.88;9.88;;;;;;;;;;5006948;28;20058;-70
2022/10/19 06:28:59;;;;;;;28.88;10.93;;;;;;;;;;5011274;28;21457;-70
2022/10/19 06:31:31;;;;;;;24.95;10.25;;;;;;;;;;5008191;28;20050;-69
2022/10/19 06:33:57;;;;;;;29.90;9.98;;;;;;;;;;5007649;28;20061;-68
2022/10/19 06:36:25;;;;;;;32.72;9.95;;;;;;;;;;5003750;28;20411;-67
2022/10/19 06:38:52;;;;;;;25.08;10.43;;;;;;;;;;5004928;28;20045;-69
2022/10/19 06:41:18;;;;;;;24.33;9.70;;;;;;;;;;5006561;28;20049;-66
2022/10/19 06:43:51;;;;;;;33.83;10.10;;;;;;;;;;5000450;28;20052;-69
2022/10/19 06:46:20;;;;;;;27.50;9.50;;;;;;;;;;5002123;28;20045;-72
2022/10/19 06:48:52;;;;;;;25.30;9.63;;;;;;;;;;4999202;28;20046;-69
2022/10/19 06:51:18;;;;;;;26.85;10.52;;;;;;;;;;5003016;28;20076;-71
2022/10/19 06:53:44;;;;;;;29.60;10.45;;;;;;;;;;5006461;28;20117;-71
2022/10/19 06:56:10;;;;;;;33.08;10.15;;;;;;;;;;5006787;28;20050;-70
2022/10/19 06:58:38;;;;;;;35.42;9.98;;;;;;;;;;5004817;28;20503;-72
2022/10/19 07:01:09;;;;;;;35.25;10.95;;;;;;;;;;5001843;28;20093;-74
2022/10/19 07:03:35;;;;;;;42.17;10.60;;;;;;;;;;5007474;28;20103;-71
2022/10/19 07:06:05;;;;;;;19.90;9.90;;;;;;;;;;5003979;28;20547;-72
2022/10/19 07:08:32;;;;;;;22.20;9.70;;;;;;;;;;5001081;28;20144;-71
2022/10/19 07:11:01;;;;;;;33.20;10.23;;;;;;;;;;5002365;28;20046;-69
2022/10/19 07:13:28;;;;;;;26.65;10.40;;;;;;;;;;5000601;28;20105;-71
2022/10/19 07:16:01;;;;;;;31.35;10.82;;;;;;;;;;5009003;28;20432;-65
2022/10/19 07:18:27;;;;;;;46.35;12.40;;;;;;;;;;5011878;28;20081;-72
2022/10/19 07:20:57;;;;;;;34.95;11.23;;;;;;;;;;5007438;28;20088;-70
2022/10/19 07:23:25;;;;;;;27.08;10.45;;;;;;;;;;5008270;28;20046;-67
2022/10/19 07:25:52;;;;;;;35.90;11.27;;;;;;;;;;5003854;28;20486;-68
2022/10/19 07:28:20;;;;;;;29.20;12.32;;;;;;;;;;5006978;28;20050;-69
2022/10/19 07:30:46;;;;;;;28.05;10.60;;;;;;;;;;4997590;28;20046;-69
2022/10/19 07:33:12;;;;;;;28.02;11.70;;;;;;;;;;5014516;28;20070;-70
2022/10/19 07:35:37;;;;;;;28.88;11.07;;;;;;;;;;5014645;28;20071;-69
2022/10/19 07:38:03;;;;;;;32.53;12.10;;;;;;;;;;5005228;28;20046;-70
2022/10/19 07:40:29;;;;;;;35.05;13.02;;;;;;;;;;5003637;28;20177;-70
2022/10/19 07:42:55;;;;;;;32.75;11.88;;;;;;;;;;5005319;28;20116;-68
2022/10/19 07:45:21;;;;;;;29.08;10.18;;;;;;;;;;5003256;28;20102;-67
2022/10/19 07:47:47;;;;;;;22.23;9.40;;;;;;;;;;5006789;28;20053;-68
2022/10/19 07:50:13;;;;;;;36.88;10.48;;;;;;;;;;5005818;28;20157;-67
2022/10/19 07:52:39;;;;;;;28.40;10.38;;;;;;;;;;5005988;28;20132;-68
2022/10/19 07:55:05;;;;;;;26.38;10.52;;;;;;;;;;5007161;28;20096;-67
2022/10/19 07:57:32;;;;;;;38.85;9.88;;;;;;;;;;5008339;28;20089;-68
2022/10/19 07:59:57;;;;;;;20.52;9.43;;;;;;;;;;4999048;28;20073;-66
2022/10/19 08:02:23;;;;;;;29.00;9.65;;;;;;;;;;5005046;28;20077;-73
2022/10/19 08:04:50;;;;;;;27.17;9.90;;;;;;;;;;5008300;28;20334;-71
2022/10/19 08:07:16;;;;;;;29.92;10.50;;;;;;;;;;4997458;28;20566;-69
2022/10/19 08:09:42;;;;;;;26.33;11.10;;;;;;;;;;5004030;28;20138;-70
2022/10/19 08:12:08;;;;;;;33.45;10.77;;;;;;;;;;5005717;28;20039;-69
2022/10/19 08:14:34;;;;;;;36.35;12.60;;;;;;;;;;4995751;28;20530;-70
2022/10/19 08:17:00;;;;;;;32.63;12.65;;;;;;;;;;4994758;28;20141;-70
2022/10/19 08:19:26;;;;;;;29.90;10.50;;;;;;;;;;4999881;28;20073;-72
2022/10/19 08:21:52;;;;;;;35.35;11.25;;;;;;;;;;5004748;28;20041;-71
2022/10/19 08:24:19;;;;;;;37.75;11.80;;;;;;;;;;5008080;28;20095;-71
2022/10/19 08:26:45;;;;;;;25.45;10.75;;;;;;;;;;5000965;28;20042;-70
2022/10/19 08:29:18;;;;;;;26.98;10.73;;;;;;;;;;5008611;28;20530;-69
2022/10/19 08:31:45;;;;;;;30.17;11.25;;;;;;;;;;5010167;28;20515;-71
2022/10/19 08:34:12;;;;;;;27.42;11.38;;;;;;;;;;5001322;28;20045;-70
2022/10/19 08:36:39;;;;;;;35.50;11.60;;;;;;;;;;4995447;28;20050;-72
2022/10/19 08:39:06;;;;;;;25.35;11.25;;;;;;;;;;5012669;28;20046;-74
2022/10/19 08:41:38;;;;;;;23.67;10.75;;;;;;;;;;5006769;28;20052;-68
2022/10/19 08:44:34;;;;;;;36.15;11.60;;;;;;;;;;4999501;28;20073;-68
2022/10/19 08:47:27;;;;;;;35.67;10.75;;;;;;;;;;5002755;28;20054;-67
2022/10/19 08:49:54;;;;;;;33.67;10.73;;;;;;;;;;5004514;28;20507;-69
2022/10/19 08:52:25;;;;;;;27.30;10.98;;;;;;;;;;5003814;28;20417;-70
2022/10/19 08:54:55;;;;;;;28.75;10.57;;;;;;;;;;4999943;28;20037;-70
2022/10/19 08:57:43;;;;;;;22.92;11.43;;;;;;;;;;4994157;28;20085;-72
2022/10/19 09:00:12;;;;;;;23.85;10.40;;;;;;;;;;5002077;28;20140;-72
2022/10/19 09:03:12;;;;;;;35.65;10.57;;;;;;;;;;5006867;28;20050;-70
2022/10/19 09:05:45;;;;;;;30.00;10.52;;;;;;;;;;4997701;28;20085;-71
2022/10/19 09:08:12;;;;;;;27.92;10.18;;;;;;;;;;5002737;28;20128;-70
2022/10/19 09:10:41;;;;;;;30.27;10.27;;;;;;;;;;5006512;28;20038;-70
2022/10/19 09:13:19;;;;;;;35.22;11.43;;;;;;;;;;5000748;28;20046;-70
2022/10/19 09:15:47;;;;;;;30.10;10.80;;;;;;;;;;4996059;28;20338;-69
2022/10/19 09:18:22;;;;;;;39.83;12.50;;;;;;;;;;5001354;28;20419;-70
2022/10/19 09:20:52;;;;;;;41.90;11.75;;;;;;;;;;5002482;28;20046;-72
2022/10/19 09:23:35;;;;;;;36.50;12.02;;;;;;;;;;5001920;28;20048;-69
2022/10/19 09:26:02;;;;;;;28.75;11.10;;;;;;;;;;4986272;28;20112;-70
2022/10/19 09:28:40;;;;;;;39.08;14.13;;;;;;;;;;5006339;28;20076;-70
2022/10/19 09:31:13;;;;;;;26.50;11.38;;;;;;;;;;4996958;28;20076;-69
2022/10/19 09:33:40;;;;;;;35.05;11.80;;;;;;;;;;4999972;28;20491;-72
2022/10/19 09:36:07;;;;;;;32.08;11.50;;;;;;;;;;5002591;28;20046;-70
2022/10/19 09:38:33;;;;;;;27.70;11.70;;;;;;;;;;5000758;28;20409;-70
2022/10/19 09:41:20;;;;;;;33.72;12.10;;;;;;;;;;5000998;28;20046;-68
2022/10/19 09:43:52;;;;;;;35.65;11.88;;;;;;;;;;5002236;28;20042;-69
2022/10/19 09:46:32;;;;;;;29.88;9.95;;;;;;;;;;4999370;28;20129;-70
2022/10/19 09:49:00;;;;;;;28.52;8.65;;;;;;;;;;4998019;28;20422;-71
2022/10/19 09:51:39;;;;;;;31.63;10.85;;;;;;;;;;5005066;28;20105;-68
2022/10/19 09:54:05;;;;;;;25.33;9.13;;;;;;;;;;5007774;28;20042;-71
2022/10/19 09:56:37;;;;;;;41.53;10.32;;;;;;;;;;4998377;28;20542;-69
2022/10/19 09:59:02;;;;;;;40.55;10.48;;;;;;;;;;5002000;28;20061;-68
2022/10/19 10:01:39;;;;;;;24.48;9.93;;;;;;;;;;5004705;28;20196;-69
2022/10/19 10:04:07;;;;;;;30.10;9.40;;;;;;;;;;4995828;28;20051;-68
2022/10/19 10:06:34;;;;;;;29.98;9.38;;;;;;;;;;4998774;28;20046;-69
2022/10/19 10:09:02;;;;;;;42.78;9.95;;;;;;;;;;5002194;28;20042;-68
2022/10/19 10:11:30;;;;;;;35.63;9.52;;;;;;;;;;5001777;28;20124;-67
2022/10/19 10:13:59;;;;;;;33.65;9.27;;;;;;;;;;5009056;28;20072;-67
2022/10/19 10:16:29;;;;;;;28.67;9.05;;;;;;;;;;5001908;28;20066;-68
2022/10/19 10:19:03;;;;;;;28.40;8.68;;;;;;;;;;5001137;28;20129;-68
2022/10/19 10:21:45;;;;;;;35.58;9.30;;;;;;;;;;5006877;28;20306;-71
2022/10/19 10:24:11;;;;;;;37.25;10.52;;;;;;;;;;5025827;28;20058;-68
2022/10/19 10:26:43;;;;;;;34.90;9.52;;;;;;;;;;5006974;28;20042;-69
2022/10/19 10:29:31;;;;;;;28.55;8.77;;;;;;;;;;5009361;28;20569;-68
2022/10/19 10:32:17;;;;;;;28.42;8.10;;;;;;;;;;5007985;28;20042;-70
2022/10/19 10:34:53;;;;;;;38.95;9.13;;;;;;;;;;5007666;28;20054;-71
2022/10/19 10:37:33;;;;;;;34.95;8.90;;;;;;;;;;5006291;28;20053;-70
2022/10/19 10:39:59;;;;;;;29.77;9.88;;;;;;;;;;5009402;28;20049;-69
2022/10/19 10:42:34;;;;;;;28.35;8.65;;;;;;;;;;5000412;28;20470;-68
2022/10/19 10:45:01;;;;;;;37.53;9.10;;;;;;;;;;5007733;28;20507;-68
2022/10/19 10:47:28;;;;;;;32.03;8.80;;;;;;;;;;5011241;28;20104;-68
2022/10/19 10:50:01;;;;;;;26.73;8.68;;;;;;;;;;5008700;28;20128;-68
2022/10/19 10:52:30;;;;;;;29.83;9.20;;;;;;;;;;5010376;28;20089;-69
2022/10/19 10:55:02;;;;;;;30.52;8.63;;;;;;;;;;5012257;28;20104;-68
2022/10/19 10:57:34;;;;;;;38.92;9.30;;;;;;;;;;5010986;28;20153;-66
2022/10/19 11:00:19;;;;;;;26.52;8.13;;;;;;;;;;5012023;28;20056;-68
2022/10/19 11:03:00;;;;;;;28.27;8.32;;;;;;;;;;5013717;28;20306;-67
2022/10/19 11:05:29;;;;;;;37.00;10.23;;;;;;;;;;5014175;28;20100;-67
2022/10/19 11:08:17;;;;;;;26.25;9.02;;;;;;;;;;4999445;28;20038;-67
2022/10/19 11:11:01;;;;;;;32.47;8.93;;;;;;;;;;5008509;28;20169;-72
2022/10/19 11:13:52;;;;;;;31.88;9.23;;;;;;;;;;5003073;28;20041;-67
2022/10/19 11:16:24;;;;;;;26.30;8.80;;;;;;;;;;4994222;28;20050;-65
2022/10/19 11:18:57;;;;;;;33.95;9.20;;;;;;;;;;5002312;28;20053;-65
2022/10/19 11:21:54;;;;;;;35.60;9.43;;;;;;;;;;5009292;28;20053;-69
2022/10/19 11:24:34;;;;;;;32.88;9.18;;;;;;;;;;5000246;28;20056;-70
2022/10/19 11:27:15;;;;;;;30.50;9.85;;;;;;;;;;5012115;28;20056;-68
2022/10/19 11:29:53;;;;;;;31.92;9.55;;;;;;;;;;5010089;28;20100;-66
2022/10/19 11:32:30;;;;;;;45.83;10.40;;;;;;;;;;5000868;28;20081;-72
2022/10/19 11:35:15;;;;;;;35.10;9.55;;;;;;;;;;4998410;28;20058;-70
2022/10/19 11:37:58;;;;;;;24.98;8.90;;;;;;;;;;5022783;28;20046;-66
2022/10/19 11:40:36;;;;;;;33.42;9.20;;;;;;;;;;5008680;28;20526;-69
2022/10/19 11:43:09;;;;;;;29.65;9.32;;;;;;;;;;5001306;28;20045;-69
2022/10/19 11:45:45;;;;;;;31.13;9.57;;;;;;;;;;5000900;28;20045;-70
2022/10/19 11:48:33;;;;;;;34.95;9.63;;;;;;;;;;5003729;28;20045;-69
2022/10/19 11:51:30;;;;;;;36.55;9.77;;;;;;;;;;5005407;28;20075;-68
2022/10/19 11:54:15;;;;;;;36.83;9.13;;;;;;;;;;5003507;28;20049;-68
2022/10/19 11:56:55;;;;;;;28.50;8.93;;;;;;;;;;5005450;28;20046;-70
2022/10/19 11:59:27;;;;;;;30.98;8.43;;;;;;;;;;5005197;28;20054;-69
2022/10/19 12:02:25;;;;;;;32.00;9.30;;;;;;;;;;5000012;28;20037;-68
2022/10/19 12:05:03;;;;;;;35.53;8.20;;;;;;;;;;4999060;28;20046;-68
2022/10/19 12:07:55;;;;;;;34.47;8.10;;;;;;;;;;4991907;28;20042;-68
2022/10/19 12:10:21;;;;;;;35.10;7.63;;;;;;;;;;5000013;28;20050;-70
2022/10/19 12:12:54;;;;;;;32.58;7.95;;;;;;;;;;5003728;28;20068;-68
2022/10/19 12:15:22;;;;;;;30.97;8.47;;;;;;;;;;5001035;28;20050;-71
2022/10/19 12:17:51;;;;;;;34.40;9.00;;;;;;;;;;5005189;28;20304;-68
2022/10/19 12:20:21;;;;;;;32.88;7.80;;;;;;;;;;5003335;28;20657;-68
2022/10/19 12:22:48;;;;;;;27.92;7.50;;;;;;;;;;5009793;28;20063;-69
2022/10/19 12:25:16;;;;;;;35.10;8.32;;;;;;;;;;5010036;28;20046;-69
2022/10/19 12:27:45;;;;;;;27.95;8.00;;;;;;;;;;4999823;28;20054;-68
2022/10/19 12:30:20;;;;;;;34.20;7.82;;;;;;;;;;5005017;28;20099;-69
2022/10/19 12:33:17;;;;;;;26.58;7.88;;;;;;;;;;5002801;28;20183;-68
2022/10/19 12:36:23;;;;;;;28.25;8.35;;;;;;;;;;5010010;28;20096;-67
2022/10/19 12:39:18;;;;;;;33.45;7.60;;;;;;;;;;5009077;28;20173;-68
2022/10/19 12:42:14;;;;;;;31.00;8.15;;;;;;;;;;4997149;28;20129;-67
2022/10/19 12:45:17;;;;;;;29.42;8.30;;;;;;;;;;5001689;28;20046;-69
2022/10/19 12:48:07;;;;;;;40.40;8.52;;;;;;;;;;5000184;28;20064;-69
2022/10/19 12:50:48;;;;;;;32.53;7.75;;;;;;;;;;5001250;28;20194;-69
2022/10/19 12:53:24;;;;;;;33.22;8.23;;;;;;;;;;5002565;28;20048;-71
2022/10/19 12:56:18;;;;;;;35.17;8.05;;;;;;;;;;5002151;28;20087;-67
2022/10/19 12:58:53;;;;;;;35.92;8.60;;;;;;;;;;5005222;28;20057;-68
2022/10/19 13:01:34;;;;;;;36.65;7.72;;;;;;;;;;4997016;28;20582;-69
2022/10/19 13:04:17;;;;;;;29.38;8.23;;;;;;;;;;5001259;28;20050;-68
2022/10/19 13:06:55;;;;;;;32.00;8.27;;;;;;;;;;5004704;28;20074;-72
2022/10/19 13:09:43;;;;;;;34.83;8.43;;;;;;;;;;5002643;28;20081;-68
2022/10/19 13:12:14;;;;;;;26.15;7.68;;;;;;;;;;5007606;28;20482;-69
2022/10/19 13:14:48;;;;;;;34.50;7.30;;;;;;;;;;5000133;28;20054;-70
2022/10/19 13:17:32;;;;;;;35.73;7.67;;;;;;;;;;4997031;28;20050;-70
2022/10/19 13:20:23;;;;;;;29.08;8.73;;;;;;;;;;5004977;28;20121;-68
2022/10/19 13:22:58;;;;;;;35.35;7.72;;;;;;;;;;4981067;28;20043;-70
2022/10/19 13:25:27;;;;;;;34.10;8.52;;;;;;;;;;4969303;28;20046;-71
2022/10/19 13:28:08;;;;;;;30.95;8.00;;;;;;;;;;4982844;28;20069;-69
2022/10/19 13:30:42;;;;;;;26.65;7.50;;;;;;;;;;4983604;28;20424;-70
2022/10/19 13:33:23;;;;;;;35.08;8.02;;;;;;;;;;4975225;28;20538;-69
2022/10/19 13:35:58;;;;;;;37.30;7.38;;;;;;;;;;4981906;28;20046;-68
2022/10/19 13:38:35;;;;;;;30.25;7.70;;;;;;;;;;4966598;28;20092;-68
2022/10/19 13:41:27;;;;;;;27.40;7.40;;;;;;;;;;4984699;28;20436;-68
2022/10/19 13:44:03;;;;;;;41.53;8.77;;;;;;;;;;4972560;28;20053;-69
2022/10/19 13:46:29;;;;;;;37.85;7.25;;;;;;;;;;4977166;28;20051;-70
2022/10/19 13:49:13;;;;;;;27.55;7.30;;;;;;;;;;4978126;28;20504;-68
2022/10/19 13:52:04;;;;;;;40.65;8.20;;;;;;;;;;4981468;28;20158;-67
2022/10/19 13:54:47;;;;;;;38.10;7.50;;;;;;;;;;4976648;28;20055;-71
2022/10/19 13:57:55;;;;;;;36.85;8.23;;;;;;;;;;4965180;28;20058;-69
2022/10/19 14:01:08;;;;;;;39.50;6.97;;;;;;;;;;4913867;29;20466;-70
2022/10/19 14:03:34;;;;;;;32.78;6.80;;;;;;;;;;4888915;29;20056;-71
2022/10/19 14:06:18;;;;;;;31.92;7.50;;;;;;;;;;4893672;29;20052;-68
2022/10/19 14:09:16;;;;;;;39.38;7.45;;;;;;;;;;4891298;29;20386;-72
2022/10/19 14:11:46;;;;;;;28.65;6.65;;;;;;;;;;4892961;29;20084;-73
2022/10/19 14:14:14;;;;;;;32.78;7.45;;;;;;;;;;4880462;29;20056;-69
2022/10/19 14:16:54;;;;;;;29.63;6.65;;;;;;;;;;4893419;29;20522;-70
2022/10/19 14:19:28;;;;;;;35.45;7.03;;;;;;;;;;4892403;29;20084;-69
2022/10/19 14:22:17;;;;;;;31.08;7.63;;;;;;;;;;4892283;29;20051;-71
2022/10/19 14:24:43;;;;;;;24.77;6.35;;;;;;;;;;4898700;29;20056;-70
2022/10/19 14:27:17;;;;;;;33.15;6.82;;;;;;;;;;4892622;29;20056;-70
2022/10/19 14:29:46;;;;;;;41.72;6.65;;;;;;;;;;4893191;29;20452;-69
2022/10/19 14:32:12;;;;;;;24.02;5.97;;;;;;;;;;4891244;29;20045;-70
2022/10/19 14:34:43;;;;;;;31.77;6.95;;;;;;;;;;4933418;28;20055;-69
2022/10/19 14:37:17;;;;;;;34.20;6.75;;;;;;;;;;4954298;28;20597;-70
2022/10/19 14:39:57;;;;;;;29.60;7.10;;;;;;;;;;4976648;28;20297;-70
2022/10/19 14:42:23;;;;;;;30.40;5.90;;;;;;;;;;5003810;28;20501;-69
2022/10/19 14:44:49;;;;;;;37.13;7.22;;;;;;;;;;5010153;28;20054;-69
2022/10/19 14:47:26;;;;;;;30.27;5.95;;;;;;;;;;5008164;28;20068;-72
2022/10/19 14:49:52;;;;;;;36.05;6.78;;;;;;;;;;5001936;28;20052;-73
2022/10/19 14:52:32;;;;;;;28.00;6.60;;;;;;;;;;5000036;28;20516;-71
2022/10/19 14:55:04;;;;;;;25.42;6.57;;;;;;;;;;5002078;28;20069;-71